createdAt,value
2023-04-23T00:00:36.842Z,10.38
2023-04-23T00:01:41.136Z,11.27
2023-04-23T00:02:50.237Z,9.65
2023-04-23T00:03:57.830Z,10.73
2023-04-23T00:05:06.492Z,11.02
2023-04-23T00:06:13.174Z,10.05
2023-04-23T00:07:15.643Z,12.20
2023-04-23T00:08:19.576Z,10.10
2023-04-23T00:09:23.188Z,11.55
2023-04-23T00:10:27.245Z,11.52
2023-04-23T00:11:30.055Z,9.63
2023-04-23T00:12:32.618Z,11.50
2023-04-23T00:13:35.821Z,10.48
2023-04-23T00:14:38.287Z,9.80
2023-04-23T00:15:40.840Z,11.65
2023-04-23T00:16:43.387Z,9.32
2023-04-23T00:17:45.672Z,9.95
2023-04-23T00:18:48.309Z,9.80
2023-04-23T00:19:51.893Z,10.05
2023-04-23T00:20:54.157Z,8.52
2023-04-23T00:21:56.432Z,10.60
2023-04-23T00:23:00.163Z,8.70
2023-04-23T00:24:02.471Z,8.68
2023-04-23T00:25:05.003Z,9.38
2023-04-23T00:26:07.249Z,9.60
2023-04-23T00:27:09.580Z,11.00
2023-04-23T00:28:11.840Z,9.63
2023-04-23T00:29:15.477Z,8.90
2023-04-23T00:30:19.046Z,8.80
2023-04-23T00:31:22.830Z,9.68
2023-04-23T00:32:25.209Z,8.95
2023-04-23T00:33:27.453Z,10.02
2023-04-23T00:34:30.042Z,10.38
2023-04-23T00:35:32.322Z,8.45
2023-04-23T00:36:34.598Z,8.25
2023-04-23T00:37:37.061Z,10.52
2023-04-23T00:38:39.329Z,8.63
2023-04-23T00:39:41.550Z,8.93
2023-04-23T00:40:43.913Z,7.68
2023-04-23T00:41:46.292Z,10.20
2023-04-23T00:42:53.240Z,7.63
2023-04-23T00:43:57.557Z,10.55
2023-04-23T00:45:01.471Z,8.27
2023-04-23T00:46:04.020Z,8.88
2023-04-23T00:47:08.193Z,9.13
2023-04-23T00:48:11.907Z,9.98
2023-04-23T00:49:15.592Z,9.05
2023-04-23T00:50:18.242Z,8.30
2023-04-23T00:51:22.131Z,9.85
2023-04-23T00:52:24.447Z,9.35
2023-04-23T00:53:27.547Z,8.45
2023-04-23T00:54:30.004Z,7.40
2023-04-23T00:55:33.108Z,7.97
2023-04-23T00:56:35.595Z,7.85
2023-04-23T00:57:38.889Z,7.70
2023-04-23T00:58:41.816Z,7.20
2023-04-23T00:59:45.260Z,9.18
2023-04-23T01:00:49.313Z,10.32
2023-04-23T01:01:52.680Z,8.55
2023-04-23T01:02:55.348Z,8.05
2023-04-23T01:03:59.100Z,9.20
2023-04-23T01:05:05.132Z,8.85
2023-04-23T01:06:07.576Z,8.05
2023-04-23T01:07:12.190Z,7.60
2023-04-23T01:08:16.545Z,9.13
2023-04-23T01:09:19.201Z,8.32
2023-04-23T01:10:21.801Z,7.97
2023-04-23T01:11:24.371Z,8.55
2023-04-23T01:12:26.897Z,12.73
2023-04-23T01:13:30.489Z,9.93
2023-04-23T01:14:33.579Z,7.90
2023-04-23T01:15:35.992Z,8.18
2023-04-23T01:16:38.966Z,7.00
2023-04-23T01:17:41.503Z,8.90
2023-04-23T01:18:44.825Z,8.57
2023-04-23T01:19:47.218Z,8.10
2023-04-23T01:20:49.828Z,10.32
2023-04-23T01:21:53.400Z,7.10
2023-04-23T01:22:56.436Z,7.68
2023-04-23T01:23:58.703Z,10.10
2023-04-23T01:25:01.196Z,8.18
2023-04-23T01:26:03.738Z,7.72
2023-04-23T01:27:06.436Z,6.72
2023-04-23T01:28:08.938Z,7.47
2023-04-23T01:29:11.823Z,9.65
2023-04-23T01:30:14.465Z,9.02
2023-04-23T01:31:17.506Z,7.68
2023-04-23T01:32:21.296Z,9.32
2023-04-23T01:33:23.752Z,9.63
2023-04-23T01:34:26.085Z,6.97
2023-04-23T01:35:30.071Z,7.13
2023-04-23T01:36:33.483Z,8.40
2023-04-23T01:37:38.531Z,8.07
2023-04-23T01:38:42.269Z,6.72
2023-04-23T01:39:44.536Z,8.30
2023-04-23T01:40:46.821Z,6.65
2023-04-23T01:41:49.792Z,7.85
2023-04-23T01:42:52.488Z,7.45
2023-04-23T01:43:57.359Z,6.55
2023-04-23T01:44:59.713Z,8.27
2023-04-23T01:46:02.101Z,9.30
2023-04-23T01:47:06.849Z,7.05
2023-04-23T01:48:10.405Z,8.65
2023-04-23T01:49:12.851Z,8.15
2023-04-23T01:50:15.516Z,8.77
2023-04-23T01:51:18.022Z,8.38
2023-04-23T01:52:20.459Z,8.80
2023-04-23T01:53:22.738Z,9.05
2023-04-23T01:54:25.115Z,7.47
2023-04-23T01:55:27.641Z,7.95
2023-04-23T01:56:30.891Z,6.93
2023-04-23T01:57:33.256Z,9.40
2023-04-23T01:58:35.897Z,10.32
2023-04-23T01:59:38.942Z,6.05
2023-04-23T02:00:41.492Z,8.55
2023-04-23T02:01:45.173Z,8.17
2023-04-23T02:02:47.729Z,9.65
2023-04-23T02:03:51.346Z,8.10
2023-04-23T02:04:54.925Z,8.10
2023-04-23T02:05:59.156Z,7.65
2023-04-23T02:07:02.626Z,7.20
2023-04-23T02:08:05.017Z,9.23
2023-04-23T02:09:08.017Z,8.65
2023-04-23T02:10:10.856Z,9.63
2023-04-23T02:11:13.245Z,9.10
2023-04-23T02:12:16.567Z,8.35
2023-04-23T02:13:18.988Z,10.43
2023-04-23T02:14:21.503Z,8.20
2023-04-23T02:15:23.827Z,8.05
2023-04-23T02:16:28.713Z,8.10
2023-04-23T02:17:31.225Z,8.27
2023-04-23T02:18:33.480Z,7.68
2023-04-23T02:19:36.112Z,7.70
2023-04-23T02:20:40.975Z,7.50
2023-04-23T02:21:43.621Z,7.43
2023-04-23T02:22:47.310Z,7.80
2023-04-23T02:23:52.378Z,6.70
2023-04-23T02:24:55.226Z,8.80
2023-04-23T02:25:57.636Z,7.07
2023-04-23T02:26:59.917Z,7.63
2023-04-23T02:28:05.560Z,9.90
2023-04-23T02:29:07.797Z,8.85
2023-04-23T02:30:11.762Z,7.07
2023-04-23T02:31:14.254Z,7.38
2023-04-23T02:32:16.521Z,7.75
2023-04-23T02:33:19.878Z,7.88
2023-04-23T02:34:22.133Z,6.72
2023-04-23T02:35:24.772Z,6.40
2023-04-23T02:36:29.025Z,7.88
2023-04-23T02:37:32.749Z,8.10
2023-04-23T02:38:34.995Z,9.70
2023-04-23T02:39:39.337Z,7.78
2023-04-23T02:40:41.749Z,7.30
2023-04-23T02:41:44.040Z,7.60
2023-04-23T02:42:46.367Z,8.75
2023-04-23T02:43:48.593Z,6.30
2023-04-23T02:44:50.839Z,9.35
2023-04-23T02:45:53.077Z,7.18
2023-04-23T02:46:55.376Z,7.55
2023-04-23T02:47:58.222Z,10.02
2023-04-23T02:49:00.676Z,7.90
2023-04-23T02:50:06.048Z,7.72
2023-04-23T02:51:13.264Z,8.32
2023-04-23T02:52:15.686Z,8.77
2023-04-23T02:53:17.904Z,7.20
2023-04-23T02:54:20.491Z,9.77
2023-04-23T02:55:22.827Z,8.68
2023-04-23T02:56:25.666Z,8.32
2023-04-23T02:57:28.764Z,7.28
2023-04-23T02:58:31.290Z,7.90
2023-04-23T02:59:36.348Z,6.93
2023-04-23T03:00:38.651Z,7.85
2023-04-23T03:01:41.521Z,7.30
2023-04-23T03:02:45.934Z,8.00
2023-04-23T03:03:48.682Z,8.82
2023-04-23T03:04:51.894Z,7.43
2023-04-23T03:05:55.175Z,6.22
2023-04-23T03:06:57.694Z,6.85
2023-04-23T03:07:59.919Z,7.25
2023-04-23T03:09:02.686Z,5.97
2023-04-23T03:10:05.763Z,7.32
2023-04-23T03:11:09.185Z,7.88
2023-04-23T03:12:11.698Z,7.40
2023-04-23T03:13:14.227Z,6.85
2023-04-23T03:14:16.609Z,6.85
2023-04-23T03:15:19.258Z,8.20
2023-04-23T03:16:22.017Z,6.50
2023-04-23T03:17:24.353Z,6.32
2023-04-23T03:18:26.849Z,7.30
2023-04-23T03:19:30.180Z,8.75
2023-04-23T03:20:32.891Z,6.57
2023-04-23T03:21:35.776Z,6.75
2023-04-23T03:22:38.051Z,8.77
2023-04-23T03:23:40.731Z,6.18
2023-04-23T03:24:43.520Z,7.55
2023-04-23T03:25:47.349Z,7.90
2023-04-23T03:26:49.710Z,7.28
2023-04-23T03:27:52.766Z,7.55
2023-04-23T03:28:55.007Z,7.28
2023-04-23T03:29:57.313Z,8.18
2023-04-23T03:30:59.731Z,9.35
2023-04-23T03:32:02.371Z,6.45
2023-04-23T03:33:05.173Z,9.27
2023-04-23T03:34:07.517Z,7.75
2023-04-23T03:35:11.758Z,8.23
2023-04-23T03:36:18.317Z,6.38
2023-04-23T03:37:20.747Z,9.35
2023-04-23T03:38:23.010Z,7.78
2023-04-23T03:39:27.086Z,7.85
2023-04-23T03:40:31.254Z,7.88
2023-04-23T03:41:37.132Z,9.18
2023-04-23T03:42:39.420Z,7.78
2023-04-23T03:43:42.240Z,6.95
2023-04-23T03:44:52.556Z,7.40
2023-04-23T03:45:54.945Z,6.85
2023-04-23T03:46:57.903Z,7.57
2023-04-23T03:48:00.261Z,7.38
2023-04-23T03:49:04.011Z,7.90
2023-04-23T03:50:08.481Z,7.28
2023-04-23T03:51:10.723Z,7.60
2023-04-23T03:52:17.913Z,9.52
2023-04-23T03:53:20.373Z,7.00
2023-04-23T03:54:58.123Z,6.70
2023-04-23T03:56:06.349Z,7.82
2023-04-23T03:57:14.294Z,10.07
2023-04-23T03:58:46.160Z,6.68
2023-04-23T03:59:48.443Z,7.10
2023-04-23T04:00:51.304Z,6.60
2023-04-23T04:01:53.703Z,8.32
2023-04-23T04:02:57.509Z,6.78
2023-04-23T04:04:02.306Z,10.02
2023-04-23T04:05:07.873Z,9.38
2023-04-23T04:06:10.392Z,10.48
2023-04-23T04:07:13.259Z,8.77
2023-04-23T04:08:15.729Z,9.38
2023-04-23T04:09:18.043Z,8.88
2023-04-23T04:10:21.457Z,11.45
2023-04-23T04:11:23.695Z,9.55
2023-04-23T04:12:25.988Z,9.05
2023-04-23T04:13:28.234Z,9.75
2023-04-23T04:14:31.843Z,8.23
2023-04-23T04:15:34.144Z,10.90
2023-04-23T04:16:36.557Z,9.65
2023-04-23T04:17:41.311Z,8.32
2023-04-23T04:18:43.674Z,7.45
2023-04-23T04:19:46.468Z,9.65
2023-04-23T04:20:49.036Z,7.65
2023-04-23T04:21:51.635Z,8.70
2023-04-23T04:22:53.942Z,8.02
2023-04-23T04:23:56.543Z,7.25
2023-04-23T04:24:58.777Z,7.93
2023-04-23T04:26:01.084Z,7.50
2023-04-23T04:27:03.750Z,8.13
2023-04-23T04:28:12.057Z,8.07
2023-04-23T04:29:15.265Z,8.15
2023-04-23T04:30:17.593Z,8.25
2023-04-23T04:31:22.176Z,7.93
2023-04-23T04:32:24.500Z,7.07
2023-04-23T04:33:27.040Z,7.90
2023-04-23T04:34:29.488Z,7.05
2023-04-23T04:35:31.755Z,8.38
2023-04-23T04:36:35.385Z,7.22
2023-04-23T04:37:37.667Z,6.57
2023-04-23T04:38:40.648Z,7.03
2023-04-23T04:39:44.307Z,7.22
2023-04-23T04:40:46.582Z,8.23
2023-04-23T04:41:48.819Z,6.85
2023-04-23T04:42:53.181Z,8.32
2023-04-23T04:43:55.427Z,7.10
2023-04-23T04:44:59.744Z,9.23
2023-04-23T04:46:02.018Z,9.38
2023-04-23T04:47:04.603Z,7.40
2023-04-23T04:48:06.915Z,7.43
2023-04-23T04:49:11.164Z,8.60
2023-04-23T04:50:13.386Z,10.70
2023-04-23T04:51:16.178Z,7.75
2023-04-23T04:52:18.572Z,6.60
2023-04-23T04:53:20.983Z,6.72
2023-04-23T04:54:23.207Z,7.38
2023-04-23T04:55:25.674Z,6.72
2023-04-23T04:56:28.348Z,9.65
2023-04-23T04:57:30.581Z,7.80
2023-04-23T04:58:32.831Z,7.53
2023-04-23T04:59:35.210Z,8.07
2023-04-23T05:00:38.157Z,8.68
2023-04-23T05:01:40.472Z,7.55
2023-04-23T05:02:42.809Z,6.80
2023-04-23T05:03:45.238Z,7.68
2023-04-23T05:04:47.727Z,8.07
2023-04-23T05:05:49.967Z,7.45
2023-04-23T05:06:52.271Z,7.88
2023-04-23T05:07:55.432Z,8.27
2023-04-23T05:08:58.515Z,8.35
2023-04-23T05:10:01.027Z,7.30
2023-04-23T05:11:04.116Z,7.10
2023-04-23T05:12:07.639Z,7.05
2023-04-23T05:13:11.179Z,7.18
2023-04-23T05:14:13.484Z,6.32
2023-04-23T05:15:15.828Z,7.00
2023-04-23T05:16:18.861Z,6.13
2023-04-23T05:17:21.160Z,8.15
2023-04-23T05:18:23.476Z,7.05
2023-04-23T05:19:25.723Z,8.07
2023-04-23T05:20:28.257Z,7.20
2023-04-23T05:21:31.788Z,7.47
2023-04-23T05:22:34.057Z,6.43
2023-04-23T05:23:37.274Z,6.70
2023-04-23T05:24:39.752Z,8.52
2023-04-23T05:25:42.219Z,6.57
2023-04-23T05:26:44.452Z,6.47
2023-04-23T05:27:47.793Z,6.18
2023-04-23T05:28:50.073Z,7.22
2023-04-23T05:29:52.356Z,7.25
2023-04-23T05:30:54.635Z,6.63
2023-04-23T05:31:57.049Z,8.95
2023-04-23T05:32:59.450Z,7.57
2023-04-23T05:34:01.708Z,6.40
2023-04-23T05:35:04.613Z,7.38
2023-04-23T05:36:08.540Z,8.00
2023-04-23T05:37:11.244Z,6.68
2023-04-23T05:38:13.566Z,8.27
2023-04-23T05:39:15.844Z,6.72
2023-04-23T05:40:18.140Z,7.00
2023-04-23T05:41:20.441Z,6.57
2023-04-23T05:42:23.244Z,7.22
2023-04-23T05:43:25.692Z,7.45
2023-04-23T05:44:31.078Z,9.07
2023-04-23T05:45:33.474Z,8.40
2023-04-23T05:46:36.141Z,8.23
2023-04-23T05:47:38.406Z,7.80
2023-04-23T05:48:40.804Z,6.95
2023-04-23T05:49:43.137Z,8.80
2023-04-23T05:50:45.584Z,8.20
2023-04-23T05:51:47.920Z,8.70
2023-04-23T05:52:50.255Z,7.05
2023-04-23T05:53:52.529Z,7.07
2023-04-23T05:54:55.919Z,9.63
2023-04-23T05:55:59.943Z,7.03
2023-04-23T05:57:03.205Z,6.80
2023-04-23T05:58:06.343Z,8.35
2023-04-23T05:59:08.618Z,7.13
2023-04-23T06:00:11.955Z,9.20
2023-04-23T06:01:18.207Z,7.25
2023-04-23T06:02:23.980Z,7.28
2023-04-23T06:03:27.464Z,7.60
2023-04-23T06:04:30.060Z,7.90
2023-04-23T06:05:33.892Z,7.05
2023-04-23T06:06:36.200Z,8.65
2023-04-23T06:07:40.807Z,7.55
2023-04-23T06:08:44.886Z,6.78
2023-04-23T06:09:47.474Z,6.82
2023-04-23T06:10:49.727Z,7.85
2023-04-23T06:11:53.505Z,7.97
2023-04-23T06:12:57.620Z,6.57
2023-04-23T06:13:59.999Z,8.15
2023-04-23T06:15:02.514Z,8.00
2023-04-23T06:16:04.996Z,7.43
2023-04-23T06:17:07.977Z,6.40
2023-04-23T06:18:14.293Z,7.18
2023-04-23T06:19:16.990Z,6.63
2023-04-23T06:20:20.659Z,7.82
2023-04-23T06:21:23.500Z,6.90
2023-04-23T06:22:25.817Z,6.88
2023-04-23T06:23:28.219Z,6.30
2023-04-23T06:24:30.521Z,8.55
2023-04-23T06:25:33.394Z,5.90
2023-04-23T06:26:35.911Z,5.90
2023-04-23T06:27:46.964Z,6.60
2023-04-23T06:28:55.408Z,7.03
2023-04-23T06:30:04.815Z,5.35
2023-04-23T06:31:08.271Z,4.85
2023-04-23T06:32:11.033Z,4.22
2023-04-23T06:33:13.604Z,3.80
2023-04-23T06:34:17.021Z,3.53
2023-04-23T06:35:19.384Z,3.50
2023-04-23T06:36:21.871Z,3.55
2023-04-23T06:37:28.152Z,3.55
2023-04-23T06:38:32.148Z,2.70
2023-04-23T06:39:34.489Z,3.55
2023-04-23T06:40:36.742Z,2.92
2023-04-23T06:41:39.233Z,2.35
2023-04-23T06:42:53.030Z,2.70
2023-04-23T06:44:10.676Z,3.15
2023-04-23T06:45:18.037Z,2.65
2023-04-23T06:46:20.709Z,3.45
2023-04-23T06:47:22.999Z,2.67
2023-04-23T06:48:29.344Z,2.80
2023-04-23T06:49:31.603Z,2.50
2023-04-23T06:50:33.862Z,3.50
2023-04-23T06:51:36.268Z,2.97
2023-04-23T06:52:39.666Z,2.60
2023-04-23T06:53:45.066Z,4.32
2023-04-23T06:54:47.714Z,2.80
2023-04-23T06:55:52.978Z,3.08
2023-04-23T06:56:57.175Z,3.10
2023-04-23T06:57:59.430Z,3.97
2023-04-23T06:59:02.530Z,3.00
2023-04-23T07:00:09.461Z,3.03
2023-04-23T07:01:14.451Z,4.38
2023-04-23T07:02:16.845Z,2.47
2023-04-23T07:03:19.762Z,3.20
2023-04-23T07:04:22.134Z,3.80
2023-04-23T07:05:24.670Z,3.63
2023-04-23T07:06:28.068Z,3.42
2023-04-23T07:07:30.373Z,2.75
2023-04-23T07:08:32.693Z,4.40
2023-04-23T07:09:35.130Z,3.25
2023-04-23T07:10:37.884Z,2.78
2023-04-23T07:11:40.909Z,2.85
2023-04-23T07:12:46.184Z,3.30
2023-04-23T07:13:49.388Z,3.25
2023-04-23T07:14:54.568Z,3.00
2023-04-23T07:15:58.352Z,3.00
2023-04-23T07:17:00.738Z,2.65
2023-04-23T07:18:03.853Z,3.63
2023-04-23T07:19:07.274Z,3.28
2023-04-23T07:20:09.805Z,4.07
2023-04-23T07:21:13.629Z,3.97
2023-04-23T07:22:15.986Z,2.85
2023-04-23T07:23:18.241Z,3.45
2023-04-23T07:24:20.652Z,3.88
2023-04-23T07:25:24.943Z,4.45
2023-04-23T07:26:30.882Z,3.25
2023-04-23T07:27:33.143Z,2.90
2023-04-23T07:28:35.508Z,4.15
2023-04-23T07:29:39.352Z,3.33
2023-04-23T07:30:41.680Z,3.83
2023-04-23T07:31:44.718Z,4.07
2023-04-23T07:32:48.831Z,3.03
2023-04-23T07:33:51.323Z,2.60
2023-04-23T07:34:56.281Z,3.13
2023-04-23T07:35:58.540Z,3.13
2023-04-23T07:37:00.817Z,3.30
2023-04-23T07:38:04.521Z,2.80
2023-04-23T07:39:06.854Z,3.22
2023-04-23T07:40:09.484Z,3.40
2023-04-23T07:41:11.875Z,2.88
2023-04-23T07:42:15.801Z,2.85
2023-04-23T07:43:18.178Z,4.00
2023-04-23T07:44:20.592Z,3.28
2023-04-23T07:45:23.164Z,3.65
2023-04-23T07:46:25.653Z,2.92
2023-04-23T07:47:28.076Z,3.75
2023-04-23T07:48:30.765Z,3.08
2023-04-23T07:49:32.978Z,4.07
2023-04-23T07:50:36.748Z,3.05
2023-04-23T07:51:39.130Z,3.22
2023-04-23T07:52:41.949Z,2.58
2023-04-23T07:53:44.277Z,2.92
2023-04-23T07:54:47.105Z,2.65
2023-04-23T07:55:49.532Z,2.90
2023-04-23T07:56:52.917Z,2.40
2023-04-23T07:57:55.276Z,2.90
2023-04-23T07:59:00.647Z,3.58
2023-04-23T08:00:03.524Z,2.30
2023-04-23T08:01:14.865Z,2.38
2023-04-23T08:02:18.684Z,1.98
2023-04-23T08:03:21.905Z,3.05
2023-04-23T08:04:24.672Z,2.30
2023-04-23T08:05:27.561Z,1.92
2023-04-23T08:06:35.342Z,3.05
2023-04-23T08:07:37.612Z,2.67
2023-04-23T08:08:39.918Z,2.13
2023-04-23T08:09:44.130Z,2.58
2023-04-23T08:10:46.697Z,1.77
2023-04-23T08:11:48.956Z,1.70
2023-04-23T08:12:51.554Z,1.48
2023-04-23T08:13:53.964Z,2.58
2023-04-23T08:14:56.253Z,2.85
2023-04-23T08:16:05.182Z,2.90
2023-04-23T08:17:07.576Z,2.00
2023-04-23T08:18:09.827Z,3.80
2023-04-23T08:19:12.065Z,2.20
2023-04-23T08:20:14.843Z,1.90
2023-04-23T08:21:18.305Z,1.92
2023-04-23T08:22:21.990Z,2.20
2023-04-23T08:23:24.794Z,2.33
2023-04-23T08:24:27.692Z,2.92
2023-04-23T08:25:31.026Z,2.22
2023-04-23T08:26:33.729Z,1.92
2023-04-23T08:27:36.117Z,2.13
2023-04-23T08:28:39.658Z,1.98
2023-04-23T08:29:42.139Z,1.80
2023-04-23T08:30:44.637Z,3.25
2023-04-23T08:31:48.104Z,2.60
2023-04-23T08:32:54.011Z,3.17
2023-04-23T08:33:56.871Z,1.95
2023-04-23T08:34:59.185Z,1.88
2023-04-23T08:36:02.349Z,2.13
2023-04-23T08:37:05.167Z,1.98
2023-04-23T08:38:07.532Z,1.75
2023-04-23T08:39:09.867Z,1.98
2023-04-23T08:40:13.383Z,2.55
2023-04-23T08:41:19.039Z,1.80
2023-04-23T08:42:29.629Z,1.98
2023-04-23T08:43:38.023Z,1.90
2023-04-23T08:44:42.714Z,2.67
2023-04-23T08:45:49.100Z,2.10
2023-04-23T08:46:54.278Z,2.58
2023-04-23T08:48:02.106Z,2.05
2023-04-23T08:49:08.052Z,1.77
2023-04-23T08:50:12.450Z,1.95
2023-04-23T08:51:21.589Z,2.30
2023-04-23T08:52:29.560Z,2.50
2023-04-23T08:53:32.938Z,2.30
2023-04-23T08:54:38.195Z,2.30
2023-04-23T08:55:41.196Z,2.50
2023-04-23T08:56:44.448Z,1.85
2023-04-23T08:57:49.455Z,3.00
2023-04-23T08:58:51.869Z,1.73
2023-04-23T08:59:55.506Z,1.85
2023-04-23T09:00:58.623Z,2.22
2023-04-23T09:02:08.068Z,1.80
2023-04-23T09:03:11.192Z,3.60
2023-04-23T09:04:17.144Z,2.05
2023-04-23T09:05:19.471Z,1.70
2023-04-23T09:06:22.111Z,2.17
2023-04-23T09:07:24.644Z,2.25
2023-04-23T09:08:27.419Z,2.33
2023-04-23T09:09:30.308Z,1.95
2023-04-23T09:10:32.828Z,2.15
2023-04-23T09:11:38.121Z,2.17
2023-04-23T09:12:42.532Z,1.98
2023-04-23T09:13:45.423Z,2.13
2023-04-23T09:14:47.724Z,1.80
2023-04-23T09:15:50.109Z,1.80
2023-04-23T09:16:53.278Z,2.10
2023-04-23T09:17:55.636Z,1.85
2023-04-23T09:19:00.770Z,1.70
2023-04-23T09:20:03.973Z,2.20
2023-04-23T09:21:07.509Z,2.83
2023-04-23T09:22:10.337Z,1.42
2023-04-23T09:23:15.368Z,1.27
2023-04-23T09:24:18.187Z,1.98
2023-04-23T09:25:22.969Z,1.48
2023-04-23T09:26:25.726Z,2.17
2023-04-23T09:27:28.311Z,1.83
2023-04-23T09:28:37.939Z,1.50
2023-04-23T09:29:41.420Z,1.50
2023-04-23T09:30:45.273Z,1.50
2023-04-23T09:31:49.911Z,1.48
2023-04-23T09:32:52.283Z,1.48
2023-04-23T09:33:55.354Z,1.65
2023-04-23T09:34:57.814Z,2.20
2023-04-23T09:36:05.852Z,2.42
2023-04-23T09:37:08.317Z,2.17
2023-04-23T09:38:10.960Z,1.95
2023-04-23T09:39:15.140Z,1.35
2023-04-23T09:40:20.406Z,2.63
2023-04-23T09:41:25.640Z,1.13
2023-04-23T09:42:28.752Z,1.90
2023-04-23T09:43:31.330Z,1.55
2023-04-23T09:44:34.286Z,1.50
2023-04-23T09:45:36.624Z,1.30
2023-04-23T09:46:41.738Z,1.38
2023-04-23T09:47:54.061Z,1.35
2023-04-23T09:48:57.321Z,1.30
2023-04-23T09:49:59.893Z,1.52
2023-04-23T09:51:02.467Z,1.50
2023-04-23T09:52:07.583Z,1.80
2023-04-23T09:53:10.821Z,1.40
2023-04-23T09:54:19.229Z,1.20
2023-04-23T09:55:32.148Z,1.25
2023-04-23T09:56:36.733Z,1.23
2023-04-23T09:57:41.658Z,1.30
2023-04-23T09:58:46.862Z,1.33
2023-04-23T09:59:53.074Z,1.10
2023-04-23T10:01:09.499Z,1.30
2023-04-23T10:02:12.177Z,1.15
2023-04-23T10:03:14.884Z,1.38
2023-04-23T10:04:22.735Z,1.38
2023-04-23T10:05:29.376Z,1.65
2023-04-23T10:06:47.113Z,1.42
2023-04-23T10:08:02.991Z,1.38
2023-04-23T10:09:05.523Z,1.30
2023-04-23T10:10:08.761Z,1.58
2023-04-23T10:11:20.336Z,1.20
2023-04-23T10:13:28.786Z,1.23
2023-04-23T10:14:31.600Z,1.20
2023-04-23T10:15:35.674Z,1.35
2023-04-23T10:16:48.589Z,1.23
2023-04-23T10:17:52.086Z,1.50
2023-04-23T10:18:57.061Z,1.73
2023-04-23T10:20:01.847Z,1.30
2023-04-23T10:21:05.189Z,1.30
2023-04-23T10:22:19.514Z,1.02
2023-04-23T10:23:24.725Z,2.08
2023-04-23T10:24:30.620Z,1.30
2023-04-23T10:25:33.730Z,1.55
2023-04-23T10:26:38.935Z,1.40
2023-04-23T10:27:53.098Z,1.40
2023-04-23T10:28:59.025Z,1.40
2023-04-23T10:30:01.828Z,1.52
2023-04-23T10:31:06.743Z,1.40
2023-04-23T10:32:09.438Z,1.45
2023-04-23T10:33:22.351Z,1.52
2023-04-23T10:34:33.557Z,1.70
2023-04-23T10:35:36.380Z,1.52
2023-04-23T10:36:39.286Z,2.83
2023-04-23T10:37:42.251Z,1.20
2023-04-23T10:38:56.945Z,1.40
2023-04-23T10:40:14.908Z,1.30
2023-04-23T10:41:22.518Z,1.52
2023-04-23T10:42:25.794Z,1.58
2023-04-23T10:43:28.221Z,1.75
2023-04-23T10:45:50.124Z,1.85
2023-04-23T10:46:54.856Z,1.30
2023-04-23T10:47:57.246Z,2.42
2023-04-23T10:49:14.910Z,2.50
2023-04-23T10:50:22.571Z,3.55
2023-04-23T10:52:17.035Z,1.90
2023-04-23T10:52:58.039Z,1.42
2023-04-23T10:54:02.121Z,1.63
2023-04-23T10:55:04.724Z,1.40
2023-04-23T10:56:09.549Z,1.35
2023-04-23T10:57:11.839Z,1.40
2023-04-23T10:58:14.177Z,1.30
2023-04-23T10:59:21.613Z,1.42
2023-04-23T11:00:26.888Z,1.38
2023-04-23T11:01:30.671Z,1.40
2023-04-23T11:02:45.175Z,1.90
2023-04-23T11:03:50.672Z,1.48
2023-04-23T11:04:58.092Z,1.20
2023-04-23T11:06:05.085Z,1.15
2023-04-23T11:07:08.994Z,1.55
2023-04-23T11:08:19.401Z,1.30
2023-04-23T11:09:32.029Z,1.27
2023-04-23T11:10:34.693Z,1.10
2023-04-23T11:11:41.356Z,2.20
2023-04-23T11:12:44.483Z,1.70
2023-04-23T11:13:54.405Z,2.45
2023-04-23T11:14:59.844Z,3.17
2023-04-23T11:16:22.765Z,1.40
2023-04-23T11:17:45.395Z,1.45
2023-04-23T11:19:08.338Z,1.50
2023-04-23T11:20:15.826Z,1.20
2023-04-23T11:21:19.215Z,1.83
2023-04-23T11:22:24.749Z,2.33
2023-04-23T11:23:33.139Z,2.65
2023-04-23T11:24:43.885Z,1.85
2023-04-23T11:25:46.953Z,1.20
2023-04-23T11:26:53.780Z,1.23
2023-04-23T11:27:58.963Z,1.23
2023-04-23T11:29:01.543Z,1.77
2023-04-23T11:30:04.045Z,1.02
2023-04-23T11:31:06.804Z,1.25
2023-04-23T11:32:11.092Z,1.30
2023-04-23T11:33:13.415Z,1.30
2023-04-23T11:34:17.512Z,1.58
2023-04-23T11:35:22.307Z,1.17
2023-04-23T11:36:25.247Z,1.33
2023-04-23T11:37:27.499Z,1.85
2023-04-23T11:38:35.971Z,1.27
2023-04-23T11:39:44.555Z,1.17
2023-04-23T11:40:48.626Z,2.70
2023-04-23T11:41:52.850Z,1.50
2023-04-23T11:42:57.796Z,1.20
2023-04-23T11:44:00.965Z,1.40
2023-04-23T11:45:03.354Z,1.30
2023-04-23T11:46:06.459Z,0.93
2023-04-23T11:47:11.401Z,1.90
2023-04-23T11:48:14.268Z,1.00
2023-04-23T11:49:20.021Z,1.10
2023-04-23T11:50:24.473Z,1.20
2023-04-23T11:51:27.187Z,1.25
2023-04-23T11:52:29.559Z,1.38
2023-04-23T11:53:32.053Z,1.70
2023-04-23T11:54:34.791Z,1.20
2023-04-23T11:55:38.371Z,1.20
2023-04-23T11:56:41.261Z,1.00
2023-04-23T11:57:48.498Z,1.30
2023-04-23T11:59:03.765Z,1.27
2023-04-23T12:00:27.229Z,1.40
2023-04-23T12:01:46.618Z,2.00
2023-04-23T12:03:05.219Z,1.23
2023-04-23T12:04:14.144Z,1.20
2023-04-23T12:05:19.932Z,1.30
2023-04-23T12:06:22.174Z,1.00
2023-04-23T12:07:33.112Z,1.00
2023-04-23T12:08:36.548Z,1.13
2023-04-23T12:09:39.356Z,1.40
2023-04-23T12:10:44.470Z,1.30
2023-04-23T12:11:49.794Z,1.10
2023-04-23T12:12:52.982Z,2.50
2023-04-23T12:13:58.150Z,1.35
2023-04-23T12:15:07.751Z,1.45
2023-04-23T12:16:11.157Z,1.30
2023-04-23T12:17:16.056Z,1.30
2023-04-23T12:18:19.384Z,1.30
2023-04-23T12:19:26.892Z,1.83
2023-04-23T12:20:31.089Z,1.55
2023-04-23T12:21:34.493Z,9.35
2023-04-23T12:22:37.163Z,1.15
2023-04-23T12:23:42.313Z,2.85
2023-04-23T12:24:55.193Z,2.53
2023-04-23T12:25:57.470Z,1.30
2023-04-23T12:27:03.001Z,2.08
2023-04-23T12:28:07.908Z,1.90
2023-04-23T12:29:13.901Z,1.77
2023-04-23T12:30:16.585Z,1.35
2023-04-23T12:31:25.672Z,1.40
2023-04-23T12:32:29.105Z,1.27
2023-04-23T12:33:31.526Z,2.70
2023-04-23T12:35:38.244Z,1.40
2023-04-23T12:36:46.693Z,1.40
2023-04-23T12:37:49.106Z,2.03
2023-04-23T12:38:51.391Z,1.42
2023-04-23T12:39:56.829Z,1.10
2023-04-23T12:41:00.357Z,1.10
2023-04-23T12:42:05.468Z,1.48
2023-04-23T12:43:07.850Z,1.30
2023-04-23T12:44:10.338Z,1.38
2023-04-23T12:45:12.661Z,1.35
2023-04-23T12:46:17.672Z,1.45
2023-04-23T12:47:19.941Z,1.02
2023-04-23T12:48:23.461Z,1.20
2023-04-23T12:49:29.749Z,1.85
2023-04-23T12:50:32.091Z,1.20
2023-04-23T12:51:34.408Z,1.10
2023-04-23T12:52:38.342Z,1.10
2023-04-23T12:53:40.687Z,1.10
2023-04-23T12:54:45.265Z,1.20
2023-04-23T12:55:48.652Z,1.50
2023-04-23T12:56:54.293Z,1.13
2023-04-23T12:57:59.710Z,1.30
2023-04-23T12:59:02.222Z,1.17
2023-04-23T13:00:05.570Z,1.17
2023-04-23T13:01:07.961Z,1.10
2023-04-23T13:02:10.385Z,1.10
2023-04-23T13:03:15.810Z,1.15
2023-04-23T13:04:18.396Z,1.25
2023-04-23T13:05:20.673Z,1.13
2023-04-23T13:06:25.244Z,1.60
2023-04-23T13:07:27.923Z,1.20
2023-04-23T13:08:30.309Z,1.30
2023-04-23T13:09:32.588Z,1.25
2023-04-23T13:10:34.890Z,1.52
2023-04-23T13:11:38.632Z,1.10
2023-04-23T13:12:41.595Z,1.30
2023-04-23T13:13:43.937Z,1.13
2023-04-23T13:14:46.193Z,1.45
2023-04-23T13:15:49.717Z,1.10
2023-04-23T13:16:52.950Z,1.30
2023-04-23T13:17:55.261Z,1.38
2023-04-23T13:18:58.325Z,1.23
2023-04-23T13:20:00.787Z,1.20
2023-04-23T13:21:04.296Z,1.27
2023-04-23T13:22:07.385Z,1.05
2023-04-23T13:23:12.969Z,1.10
2023-04-23T13:24:19.480Z,1.30
2023-04-23T13:25:21.795Z,1.10
2023-04-23T13:26:24.256Z,1.20
2023-04-23T13:27:29.342Z,1.02
2023-04-23T13:28:31.797Z,1.25
2023-04-23T13:29:34.217Z,1.30
2023-04-23T13:30:36.463Z,1.30
2023-04-23T13:31:38.720Z,1.30
2023-04-23T13:32:41.019Z,1.17
2023-04-23T13:33:43.321Z,1.27
2023-04-23T13:34:45.892Z,1.13
2023-04-23T13:35:48.873Z,1.00
2023-04-23T13:36:53.814Z,1.30
2023-04-23T13:37:56.096Z,1.77
2023-04-23T13:38:58.339Z,1.20
2023-04-23T13:40:00.642Z,1.27
2023-04-23T13:41:04.500Z,1.30
2023-04-23T13:42:09.943Z,1.20
2023-04-23T13:43:12.618Z,1.17
2023-04-23T13:44:15.915Z,1.30
2023-04-23T13:45:18.200Z,1.40
2023-04-23T13:46:20.645Z,1.15
2023-04-23T13:47:23.075Z,1.40
2023-04-23T13:48:28.950Z,1.40
2023-04-23T13:49:31.246Z,1.30
2023-04-23T13:50:38.173Z,1.30
2023-04-23T13:51:40.565Z,1.10
2023-04-23T13:52:45.047Z,1.13
2023-04-23T13:53:47.384Z,1.08
2023-04-23T13:54:51.164Z,1.30
2023-04-23T13:55:57.436Z,1.30
2023-04-23T13:57:01.350Z,1.27
2023-04-23T13:58:04.753Z,1.30
2023-04-23T13:59:18.026Z,1.30
2023-04-23T14:00:22.818Z,1.27
2023-04-23T14:01:25.179Z,1.25
2023-04-23T14:02:27.597Z,1.30
2023-04-23T14:03:30.240Z,1.13
2023-04-23T14:04:32.561Z,1.10
2023-04-23T14:05:37.352Z,1.15
2023-04-23T14:06:39.604Z,1.20
2023-04-23T14:07:44.171Z,1.83
2023-04-23T14:08:46.441Z,1.13
2023-04-23T14:09:52.847Z,1.20
2023-04-23T14:10:55.206Z,1.42
2023-04-23T14:11:57.539Z,1.30
2023-04-23T14:12:59.863Z,1.10
2023-04-23T14:14:02.359Z,3.67
2023-04-23T14:15:08.917Z,1.15